This is the latest recevied weather packets stored in our database for station/object KD2FGL-13. If no packets are shown the sender has not sent any weather packets the latest 10 day(s).
| Time | Temp. | Humidity | Pressure | Rain* | Wind** | Luminosity | Snow |
|---|---|---|---|---|---|---|---|
| 1777298484 | 18.33° C | 44% | 1026.1 hPa | 0 mm | - | - | - |
| 1777298181 | 18.33° C | 44% | 1026 hPa | 0 mm | - | - | - |
| 1777297269 | 17.22° C | 49% | 1025.9 hPa | 0 mm | - | - | - |
| 1777296964 | 17.22° C | 50% | 1025.9 hPa | 0 mm | - | - | - |
| 1777295445 | 13.89° C | 58% | 1026 hPa | 0 mm | - | - | - |
| 1777294837 | 12.78° C | 61% | 1026 hPa | 0 mm | - | - | - |
| 1777293622 | 10.56° C | 62% | 1026.1 hPa | 0 mm | - | - | - |
| 1777293319 | 10.56° C | 63% | 1025.9 hPa | 0 mm | - | - | - |
| 1777292711 | 10° C | 63% | 1025.9 hPa | 0 mm | - | - | - |
| 1777292101 | 9.44° C | 63% | 1025.8 hPa | 0 mm | - | - | - |
| 1777291191 | 8.89° C | 63% | 1025.9 hPa | 0 mm | - | - | - |
| 1777289062 | 7.22° C | 62% | 1025.8 hPa | 0 mm | - | - | - |
| 1777288151 | 6.11° C | 65% | 1025.7 hPa | 0 mm | - | - | - |
| 1777287543 | 5° C | 65% | 1025.6 hPa | 0 mm | - | - | - |
| 1777287240 | 5° C | 65% | 1025.6 hPa | 0 mm | - | - | - |
| 1777286023 | 4.44° C | 67% | 1025.5 hPa | 0 mm | - | - | - |
| 1777285719 | 3.89° C | 67% | 1025.5 hPa | 0 mm | - | - | - |
| 1777285415 | 3.89° C | 67% | 1025.6 hPa | 0.25 mm | - | - | - |
| 1777285111 | 3.89° C | 67% | 1025.6 hPa | 0.25 mm | - | - | - |
| 1777283897 | 3.89° C | 67% | 1025.5 hPa | 0.25 mm | - | - | - |
| 1777283591 | 3.89° C | 67% | 1025.6 hPa | 0.25 mm | - | - | - |
| 1777282072 | 4.44° C | 66% | 1025.6 hPa | 0.25 mm | - | - | - |
| 1777281768 | 4.44° C | 66% | 1025.5 hPa | 0.25 mm | - | - | - |
| 1777280248 | 4.44° C | 66% | 1025.4 hPa | 0.25 mm | - | - | - |
* Rain since midnight (hover to see other rain measurements)
** Current wind speed in m/s (hover to see current wind gust speed)